createdAt,value
2018-12-30T00:01:08.604Z,98853.58
2018-12-30T00:03:36.114Z,98851.01
2018-12-30T00:06:03.446Z,98850.11
2018-12-30T00:08:30.879Z,98844.03
2018-12-30T00:10:58.354Z,98842.63
2018-12-30T00:13:25.792Z,98845.23
2018-12-30T00:15:53.194Z,98860.37
2018-12-30T00:18:20.600Z,98855.99
2018-12-30T00:20:48.272Z,98851.23
2018-12-30T00:23:15.760Z,98848.28
2018-12-30T00:25:43.610Z,98855.16
2018-12-30T00:28:11.182Z,98852.13
2018-12-30T00:30:38.791Z,98848.23
2018-12-30T00:33:06.365Z,98838.68
2018-12-30T00:35:34.253Z,98835.61
2018-12-30T00:38:01.688Z,98837.40
2018-12-30T00:40:29.227Z,98835.27
2018-12-30T00:42:57.009Z,98833.58
2018-12-30T00:45:25.300Z,98836.64
2018-12-30T00:47:53.199Z,98827.98
2018-12-30T00:50:21.497Z,98819.78
2018-12-30T00:52:49.867Z,98814.98
2018-12-30T00:55:17.456Z,98814.08
2018-12-30T00:57:45.095Z,98816.70
2018-12-30T01:00:13.134Z,98811.98
2018-12-30T01:02:40.830Z,98815.00
2018-12-30T01:05:09.133Z,98820.58
2018-12-30T01:07:36.916Z,98827.50
2018-12-30T01:10:04.502Z,98823.25
2018-12-30T01:12:33.483Z,98823.38
2018-12-30T01:15:01.022Z,98826.03
2018-12-30T01:17:28.672Z,98832.48
2018-12-30T01:19:56.300Z,98834.20
2018-12-30T01:22:23.905Z,98835.91
2018-12-30T01:24:55.506Z,98843.77
2018-12-30T01:27:23.035Z,98840.80
2018-12-30T01:29:50.840Z,98847.27
2018-12-30T01:32:19.458Z,98855.40
2018-12-30T01:34:47.261Z,98849.31
2018-12-30T01:37:14.903Z,98862.26
2018-12-30T01:39:42.460Z,98859.21
2018-12-30T01:42:11.001Z,98866.16
2018-12-30T01:44:39.494Z,98876.42
2018-12-30T01:47:08.745Z,98883.28
2018-12-30T01:49:38.058Z,98886.30
2018-12-30T01:52:07.093Z,98890.30
2018-12-30T01:54:35.358Z,98879.48
2018-12-30T01:57:02.980Z,98895.11
2018-12-30T01:59:31.648Z,98892.55
2018-12-30T02:01:59.236Z,98884.72
2018-12-30T02:04:27.151Z,98889.91
2018-12-30T02:06:55.186Z,98884.30
2018-12-30T02:09:22.934Z,98881.66
2018-12-30T02:11:51.163Z,98885.97
2018-12-30T02:17:02.561Z,98889.56
2018-12-30T02:19:30.207Z,98889.55
2018-12-30T02:21:58.399Z,98880.91
2018-12-30T02:24:27.651Z,98884.80
2018-12-30T02:26:55.871Z,98885.64
2018-12-30T02:29:23.474Z,98893.80
2018-12-30T02:31:52.145Z,98902.86
2018-12-30T02:34:19.679Z,98897.66
2018-12-30T02:36:47.368Z,98894.63
2018-12-30T02:39:15.956Z,98893.31
2018-12-30T02:41:43.933Z,98896.30
2018-12-30T02:44:11.554Z,98895.84
2018-12-30T02:46:39.170Z,98897.16
2018-12-30T02:49:06.713Z,98890.66
2018-12-30T02:51:34.646Z,98884.58
2018-12-30T02:54:02.231Z,98880.72
2018-12-30T02:56:29.857Z,98872.91
2018-12-30T02:58:57.389Z,98866.45
2018-12-30T03:01:24.922Z,98876.80
2018-12-30T03:03:52.884Z,98871.18
2018-12-30T03:06:22.285Z,98862.20
2018-12-30T03:08:53.453Z,98866.14
2018-12-30T03:11:21.064Z,98863.13
2018-12-30T03:13:48.728Z,98865.70
2018-12-30T03:16:16.303Z,98869.98
2018-12-30T03:18:44.064Z,98873.50
2018-12-30T03:21:11.846Z,98881.73
2018-12-30T03:23:39.408Z,98876.97
2018-12-30T03:26:07.012Z,98868.72
2018-12-30T03:28:34.601Z,98861.79
2018-12-30T03:31:03.010Z,98867.02
2018-12-30T03:33:31.441Z,98877.41
2018-12-30T03:35:59.229Z,98873.53
2018-12-30T03:38:27.561Z,98868.30
2018-12-30T03:40:55.857Z,98870.47
2018-12-30T03:43:23.341Z,98873.48
2018-12-30T03:45:55.097Z,98867.84
2018-12-30T03:48:22.773Z,98869.15
2018-12-30T03:50:50.353Z,98871.31
2018-12-30T03:53:17.912Z,98874.77
2018-12-30T03:55:45.436Z,98879.08
2018-12-30T03:58:13.098Z,98883.42
2018-12-30T04:00:40.612Z,98868.80
2018-12-30T04:03:08.087Z,98859.77
2018-12-30T04:05:35.886Z,98857.95
2018-12-30T04:08:03.473Z,98858.84
2018-12-30T04:10:30.939Z,98850.20
2018-12-30T04:12:58.435Z,98843.72
2018-12-30T04:15:26.484Z,98841.13
2018-12-30T04:17:54.066Z,98843.67
2018-12-30T04:20:21.631Z,98854.43
2018-12-30T04:22:49.113Z,98850.95
2018-12-30T04:25:17.790Z,98855.71
2018-12-30T04:27:45.544Z,98859.20
2018-12-30T04:30:13.143Z,98858.34
2018-12-30T04:32:42.751Z,98858.31
2018-12-30T04:35:10.268Z,98860.91
2018-12-30T04:37:37.783Z,98864.77
2018-12-30T04:40:05.734Z,98860.90
2018-12-30T04:42:33.950Z,98860.41
2018-12-30T04:45:01.746Z,98855.23
2018-12-30T04:47:29.341Z,98854.86
2018-12-30T04:49:57.034Z,98861.79
2018-12-30T04:52:25.741Z,98855.38
2018-12-30T04:54:52.114Z,98862.71
2018-12-30T04:57:19.757Z,98865.30
2018-12-30T04:59:47.422Z,98869.60
2018-12-30T05:02:14.905Z,98870.05
2018-12-30T05:04:42.336Z,98879.56
2018-12-30T05:07:10.899Z,98890.76
2018-12-30T05:09:38.951Z,98888.63
2018-12-30T05:12:06.424Z,98890.84
2018-12-30T05:14:34.088Z,98888.66
2018-12-30T05:17:01.752Z,98885.63
2018-12-30T05:19:29.257Z,98890.80
2018-12-30T05:21:56.739Z,98892.91
2018-12-30T05:24:24.271Z,98894.20
2018-12-30T05:26:51.794Z,98899.39
2018-12-30T05:29:19.247Z,98892.05
2018-12-30T05:31:46.731Z,98888.13
2018-12-30T05:34:14.223Z,98886.02
2018-12-30T05:36:48.915Z,98874.73
2018-12-30T05:39:16.446Z,98877.79
2018-12-30T05:41:43.908Z,98887.33
2018-12-30T05:44:11.478Z,98887.79
2018-12-30T05:46:38.949Z,98889.08
2018-12-30T05:49:06.405Z,98891.23
2018-12-30T05:51:33.964Z,98883.87
2018-12-30T05:54:01.431Z,98887.30
2018-12-30T05:56:30.003Z,98881.66
2018-12-30T05:58:57.530Z,98880.39
2018-12-30T06:01:25.230Z,98879.58
2018-12-30T06:03:52.877Z,98881.78
2018-12-30T06:06:20.556Z,98876.60
2018-12-30T06:08:48.066Z,98879.60
2018-12-30T06:11:16.168Z,98880.03
2018-12-30T06:13:47.037Z,98887.83
2018-12-30T06:16:14.912Z,98890.41
2018-12-30T06:18:42.629Z,98883.50
2018-12-30T06:21:10.338Z,98896.87
2018-12-30T06:23:39.226Z,98886.52
2018-12-30T06:26:06.736Z,98889.17
2018-12-30T06:28:35.075Z,98897.74
2018-12-30T06:31:02.840Z,98891.65
2018-12-30T06:33:32.955Z,98903.28
2018-12-30T06:36:00.508Z,98911.91
2018-12-30T06:38:28.027Z,98917.53
2018-12-30T06:40:55.882Z,98913.66
2018-12-30T06:43:23.415Z,98912.38
2018-12-30T06:45:51.356Z,98914.53
2018-12-30T06:48:18.858Z,98911.50
2018-12-30T06:50:53.032Z,98919.28
2018-12-30T06:53:20.643Z,98927.45
2018-12-30T06:55:51.394Z,98929.20
2018-12-30T06:58:20.761Z,98944.28
2018-12-30T07:00:50.866Z,98945.16
2018-12-30T07:03:19.492Z,98955.55
2018-12-30T07:05:50.725Z,98956.89
2018-12-30T07:08:18.264Z,98963.78
2018-12-30T07:10:45.798Z,98960.77
2018-12-30T07:13:14.991Z,98964.67
2018-12-30T07:15:45.663Z,98962.96
2018-12-30T07:18:13.497Z,98962.95
2018-12-30T07:20:41.221Z,98961.69
2018-12-30T07:23:08.873Z,98965.55
2018-12-30T07:25:37.097Z,98978.48
2018-12-30T07:28:05.171Z,98992.30
2018-12-30T07:30:32.717Z,98990.53
2018-12-30T07:33:00.332Z,99000.03
2018-12-30T07:35:28.346Z,99002.61
2018-12-30T07:37:55.947Z,99007.37
2018-12-30T07:40:23.429Z,99003.91
2018-12-30T07:42:50.986Z,99003.03
2018-12-30T07:45:18.539Z,99002.17
2018-12-30T07:47:46.118Z,99005.14
2018-12-30T07:50:13.635Z,99010.70
2018-12-30T07:52:41.299Z,99015.81
2018-12-30T07:55:08.958Z,99011.48
2018-12-30T07:57:36.557Z,99010.19
2018-12-30T08:00:05.821Z,99008.45
2018-12-30T08:02:33.535Z,98996.79
2018-12-30T08:05:01.025Z,99008.44
2018-12-30T08:07:28.441Z,99014.04
2018-12-30T08:09:56.144Z,99019.61
2018-12-30T08:12:23.803Z,99025.69
2018-12-30T08:14:53.651Z,99035.63
2018-12-30T08:17:21.126Z,99026.08
2018-12-30T08:19:48.733Z,99023.48
2018-12-30T08:22:18.044Z,99030.81
2018-12-30T08:24:45.641Z,99032.96
2018-12-30T08:27:13.203Z,99024.75
2018-12-30T08:29:40.718Z,99014.39
2018-12-30T08:32:08.284Z,99005.72
2018-12-30T08:34:35.752Z,99003.23
2018-12-30T08:37:03.197Z,98999.41
2018-12-30T08:39:30.812Z,98999.40
2018-12-30T08:41:58.826Z,98999.78
2018-12-30T08:44:26.265Z,98979.35
2018-12-30T08:46:53.767Z,98975.48
2018-12-30T08:49:21.283Z,98966.95
2018-12-30T08:51:49.362Z,98982.95
2018-12-30T08:54:17.021Z,98996.79
2018-12-30T08:56:45.438Z,98991.69
2018-12-30T08:59:13.061Z,99006.81
2018-12-30T09:01:40.618Z,99012.01
2018-12-30T09:04:08.142Z,98996.42
2018-12-30T09:06:35.712Z,98976.08
2018-12-30T09:09:03.911Z,98965.59
2018-12-30T09:11:31.401Z,98972.87
2018-12-30T09:13:59.024Z,98978.09
2018-12-30T09:16:26.587Z,98999.75
2018-12-30T09:18:54.079Z,99011.45
2018-12-30T09:21:21.715Z,99017.48
2018-12-30T09:23:54.838Z,99019.59
2018-12-30T09:26:23.348Z,99024.24
2018-12-30T09:28:50.897Z,99002.45
2018-12-30T09:31:18.431Z,99003.68
2018-12-30T09:33:45.944Z,99002.75
2018-12-30T09:36:13.491Z,99002.22
2018-12-30T09:38:44.878Z,98994.80
2018-12-30T09:41:12.581Z,98985.69
2018-12-30T09:43:40.243Z,98991.80
2018-12-30T09:46:08.701Z,98997.00
2018-12-30T09:48:43.838Z,99001.73
2018-12-30T09:51:12.595Z,98980.09
2018-12-30T09:53:45.094Z,98984.23
2018-12-30T09:56:12.104Z,98987.11
2018-12-30T09:58:39.854Z,98999.14
2018-12-30T10:01:07.958Z,99002.52
2018-12-30T10:03:36.741Z,98992.97
2018-12-30T10:06:04.478Z,98988.55
2018-12-30T10:08:33.612Z,98990.27
2018-12-30T10:11:01.185Z,98995.99
2018-12-30T10:13:28.721Z,98982.98
2018-12-30T10:15:56.286Z,98983.41
2018-12-30T10:18:24.684Z,98992.22
2018-12-30T10:20:52.281Z,98974.77
2018-12-30T10:23:21.062Z,98971.67
2018-12-30T10:25:48.782Z,98978.62
2018-12-30T10:28:16.393Z,98981.67
2018-12-30T10:30:45.506Z,98976.59
2018-12-30T10:33:12.957Z,98969.83
2018-12-30T10:35:40.735Z,98967.13
2018-12-30T10:38:08.540Z,98957.08
2018-12-30T10:40:36.088Z,98955.08
2018-12-30T10:43:03.589Z,98950.92
2018-12-30T10:45:31.090Z,98949.60
2018-12-30T10:47:58.648Z,98948.95
2018-12-30T10:50:26.123Z,98950.19
2018-12-30T10:52:53.631Z,98961.20
2018-12-30T10:55:21.236Z,98968.59
2018-12-30T10:57:48.899Z,98958.98
2018-12-30T11:00:17.167Z,98956.20
2018-12-30T11:02:44.895Z,98956.73
2018-12-30T11:05:12.491Z,98943.56
2018-12-30T11:07:41.835Z,98932.25
2018-12-30T11:10:09.458Z,98926.25
2018-12-30T11:12:37.487Z,98926.06
2018-12-30T11:15:05.019Z,98921.69
2018-12-30T11:17:32.599Z,98913.42
2018-12-30T11:20:00.247Z,98904.11
2018-12-30T11:22:28.575Z,98890.33
2018-12-30T11:24:55.690Z,98891.06
2018-12-30T11:27:23.051Z,98881.28
2018-12-30T11:29:50.326Z,98867.23
2018-12-30T11:32:17.618Z,98849.53
2018-12-30T11:34:45.429Z,98832.41
2018-12-30T11:37:12.529Z,98832.39
2018-12-30T11:39:39.583Z,98834.08
2018-12-30T11:42:06.694Z,98820.08
2018-12-30T11:44:33.780Z,98807.41
2018-12-30T11:47:02.132Z,98808.09
2018-12-30T11:49:29.260Z,98807.08
2018-12-30T11:51:56.458Z,98813.31
2018-12-30T11:54:23.463Z,98795.05
2018-12-30T11:56:50.613Z,98787.03
2018-12-30T11:59:17.635Z,98769.47
2018-12-30T12:01:44.687Z,98767.08
2018-12-30T12:04:11.772Z,98757.55
2018-12-30T12:06:39.014Z,98754.53
2018-12-30T12:09:06.846Z,98728.31
2018-12-30T12:11:34.588Z,98725.58
2018-12-30T12:14:01.799Z,98732.50
2018-12-30T12:16:28.874Z,98749.64
2018-12-30T12:18:56.102Z,98746.68
2018-12-30T12:21:23.331Z,98733.33
2018-12-30T12:23:50.459Z,98734.03
2018-12-30T12:26:17.558Z,98727.21
2018-12-30T12:28:44.585Z,98728.29
2018-12-30T12:31:11.707Z,98718.16
2018-12-30T12:33:38.661Z,98726.30
2018-12-30T12:36:05.779Z,98744.61
2018-12-30T12:38:37.171Z,98742.28
2018-12-30T12:41:05.671Z,98740.88
2018-12-30T12:43:32.727Z,98734.40
2018-12-30T12:45:59.929Z,98729.56
2018-12-30T12:48:27.345Z,98706.15
2018-12-30T12:50:54.735Z,98703.25
2018-12-30T12:53:51.984Z,98699.98
2018-12-30T12:56:20.419Z,98701.78
2018-12-30T12:58:47.569Z,98691.36
2018-12-30T13:01:15.239Z,98685.59
2018-12-30T13:20:28.383Z,98669.48
2018-12-30T13:22:56.348Z,98662.45
2018-12-30T13:25:23.898Z,98658.89
2018-12-30T13:27:51.008Z,98651.59
2018-12-30T13:30:18.018Z,98633.38
2018-12-30T13:32:45.065Z,98626.71
2018-12-30T13:35:12.792Z,98634.15
2018-12-30T13:37:40.313Z,98636.19
2018-12-30T13:40:07.832Z,98629.56
2018-12-30T13:42:35.689Z,98636.92
2018-12-30T13:45:03.967Z,98630.80
2018-12-30T13:47:31.673Z,98623.34
2018-12-30T13:49:59.294Z,98628.31
2018-12-30T13:52:26.849Z,98632.19
2018-12-30T13:54:54.291Z,98635.61
2018-12-30T13:57:22.013Z,98640.73
2018-12-30T13:59:50.478Z,98637.19
2018-12-30T14:02:17.944Z,98636.03
2018-12-30T14:04:45.488Z,98633.45
2018-12-30T14:07:13.426Z,98629.22
2018-12-30T14:09:41.704Z,98636.37
2018-12-30T14:12:09.233Z,98641.84
2018-12-30T14:14:36.858Z,98634.57
2018-12-30T14:17:04.625Z,98642.72
2018-12-30T14:19:32.472Z,98634.19
2018-12-30T14:21:59.921Z,98637.34
2018-12-30T14:24:27.488Z,98637.37
2018-12-30T14:26:59.728Z,98639.72
2018-12-30T14:29:22.719Z,98633.36
2018-12-30T14:31:50.263Z,98626.79
2018-12-30T14:34:17.788Z,98623.05
2018-12-30T14:36:45.582Z,98621.92
2018-12-30T14:39:13.146Z,98617.00
2018-12-30T14:41:40.629Z,98613.42
2018-12-30T14:44:08.683Z,98607.06
2018-12-30T14:46:36.224Z,98596.83
2018-12-30T14:49:05.180Z,98598.06
2018-12-30T14:51:32.793Z,98597.40
2018-12-30T14:54:00.286Z,98582.63
2018-12-30T14:56:27.778Z,98578.18
2018-12-30T14:58:55.205Z,98579.98
2018-12-30T15:01:22.668Z,98577.41
2018-12-30T15:03:50.138Z,98581.16
2018-12-30T15:06:18.726Z,98581.38
2018-12-30T15:08:46.267Z,98580.06
2018-12-30T15:11:13.892Z,98572.87
2018-12-30T15:13:42.720Z,98573.14
2018-12-30T15:16:10.258Z,98577.10
2018-12-30T15:18:37.821Z,98581.30
2018-12-30T15:21:05.344Z,98579.33
2018-12-30T15:23:32.874Z,98589.14
2018-12-30T15:26:00.495Z,98579.68
2018-12-30T15:28:28.122Z,98578.83
2018-12-30T15:30:55.633Z,98579.29
2018-12-30T15:33:24.615Z,98589.63
2018-12-30T15:35:52.172Z,98588.23
2018-12-30T15:38:20.877Z,98590.58
2018-12-30T15:40:48.465Z,98592.38
2018-12-30T15:43:17.511Z,98595.41
2018-12-30T15:45:48.828Z,98595.15
2018-12-30T15:48:17.671Z,98595.02
2018-12-30T15:50:45.312Z,98595.70
2018-12-30T15:53:12.836Z,98598.37
2018-12-30T15:55:42.696Z,98593.89
2018-12-30T15:58:10.405Z,98592.89
2018-12-30T16:00:38.159Z,98594.31
2018-12-30T16:03:05.749Z,98593.22
2018-12-30T16:05:33.416Z,98600.80
2018-12-30T16:08:01.052Z,98615.17
2018-12-30T16:10:28.634Z,98610.47
2018-12-30T16:12:57.595Z,98612.31
2018-12-30T16:15:25.072Z,98620.17
2018-12-30T16:17:52.601Z,98613.73
2018-12-30T16:20:20.234Z,98614.73
2018-12-30T16:22:47.866Z,98614.73
2018-12-30T16:25:15.359Z,98624.02
2018-12-30T16:27:43.935Z,98630.20
2018-12-30T16:30:11.518Z,98638.55
2018-12-30T16:32:39.124Z,98635.28
2018-12-30T16:35:06.685Z,98645.42
2018-12-30T16:37:34.267Z,98649.41
2018-12-30T16:40:02.519Z,98658.53
2018-12-30T16:42:30.305Z,98662.76
2018-12-30T16:44:57.856Z,98657.95
2018-12-30T16:47:25.353Z,98657.48
2018-12-30T16:49:52.841Z,98661.51
2018-12-30T16:52:20.289Z,98673.73
2018-12-30T16:54:47.772Z,98675.09
2018-12-30T16:57:15.302Z,98680.38
2018-12-30T16:59:42.829Z,98682.11
2018-12-30T17:02:10.258Z,98684.26
2018-12-30T17:04:37.657Z,98677.00
2018-12-30T17:07:05.106Z,98684.81
2018-12-30T17:09:33.212Z,98685.24
2018-12-30T17:12:00.774Z,98680.88
2018-12-30T17:14:28.193Z,98688.27
2018-12-30T17:16:55.625Z,98684.86
2018-12-30T17:19:23.027Z,98691.03
2018-12-30T17:21:50.506Z,98685.79
2018-12-30T17:24:18.165Z,98698.34
2018-12-30T17:26:45.907Z,98701.75
2018-12-30T17:29:13.440Z,98701.30
2018-12-30T17:31:40.907Z,98698.42
2018-12-30T17:34:08.380Z,98705.45
2018-12-30T17:36:35.935Z,98704.70
2018-12-30T17:39:03.485Z,98711.31
2018-12-30T17:41:30.948Z,98699.94
2018-12-30T17:43:58.615Z,98707.31
2018-12-30T17:46:26.095Z,98717.72
2018-12-30T17:48:53.581Z,98719.78
2018-12-30T17:51:21.080Z,98728.42
2018-12-30T17:53:49.174Z,98737.88
2018-12-30T17:56:17.277Z,98749.97
2018-12-30T17:58:44.938Z,98749.22
2018-12-30T18:01:12.463Z,98746.69
2018-12-30T18:03:40.817Z,98747.61
2018-12-30T18:06:08.246Z,98751.44
2018-12-30T18:08:35.691Z,98751.41
2018-12-30T18:11:03.217Z,98756.98
2018-12-30T18:13:30.789Z,98760.14
2018-12-30T18:15:58.593Z,98751.55
2018-12-30T18:18:26.243Z,98752.22
2018-12-30T18:20:53.747Z,98750.24
2018-12-30T18:23:21.232Z,98748.11
2018-12-30T18:25:48.756Z,98741.06
2018-12-30T18:28:16.238Z,98740.55
2018-12-30T18:30:43.635Z,98741.08
2018-12-30T18:33:11.041Z,98734.62
2018-12-30T18:35:38.447Z,98737.73
2018-12-30T18:38:05.950Z,98736.95
2018-12-30T18:40:33.511Z,98745.70
2018-12-30T18:43:00.979Z,98746.32
2018-12-30T18:45:28.371Z,98761.14
2018-12-30T18:47:55.780Z,98764.20
2018-12-30T18:50:23.350Z,98789.50
2018-12-30T18:52:51.366Z,98791.62
2018-12-30T18:55:18.763Z,98783.77
2018-12-30T18:57:46.260Z,98778.47
2018-12-30T19:00:13.816Z,98779.27
2018-12-30T19:02:41.375Z,98790.07
2018-12-30T19:05:08.944Z,98790.52
2018-12-30T19:07:36.450Z,98793.95
2018-12-30T19:10:03.944Z,98782.30
2018-12-30T19:12:31.634Z,98785.08
2018-12-30T19:14:59.198Z,98795.20
2018-12-30T19:17:26.749Z,98798.80
2018-12-30T19:19:54.398Z,98799.31
2018-12-30T19:22:22.007Z,98790.26
2018-12-30T19:24:49.631Z,98783.41
2018-12-30T19:27:17.171Z,98774.31
2018-12-30T19:29:45.051Z,98769.50
2018-12-30T19:32:12.755Z,98775.20
2018-12-30T19:34:40.288Z,98784.77
2018-12-30T19:37:07.847Z,98787.85
2018-12-30T19:39:35.357Z,98786.12
2018-12-30T19:42:03.602Z,98787.04
2018-12-30T19:44:31.262Z,98790.19
2018-12-30T19:46:59.017Z,98799.38
2018-12-30T19:49:26.547Z,98802.50
2018-12-30T19:51:54.039Z,98810.80
2018-12-30T19:54:21.523Z,98805.63
2018-12-30T19:56:49.140Z,98799.19
2018-12-30T19:59:16.550Z,98799.65
2018-12-30T20:01:43.947Z,98799.29
2018-12-30T20:04:11.381Z,98802.42
2018-12-30T20:06:38.776Z,98810.45
2018-12-30T20:09:06.299Z,98809.66
2018-12-30T20:11:33.743Z,98803.64
2018-12-30T20:14:01.171Z,98803.17
2018-12-30T20:16:28.563Z,98805.26
2018-12-30T20:18:55.983Z,98803.87
2018-12-30T20:21:23.380Z,98794.38
2018-12-30T20:23:51.163Z,98794.47
2018-12-30T20:26:18.142Z,98788.94
2018-12-30T20:28:45.552Z,98792.45
2018-12-30T20:31:12.959Z,98795.48
2018-12-30T20:33:40.400Z,98809.35
2018-12-30T20:36:08.705Z,98801.62
2018-12-30T20:38:35.681Z,98798.20
2018-12-30T20:41:02.626Z,98809.39
2018-12-30T20:43:29.589Z,98807.64
2018-12-30T20:45:56.611Z,98803.75
2018-12-30T20:48:25.329Z,98807.21
2018-12-30T20:50:50.667Z,98801.95
2018-12-30T20:53:17.608Z,98794.97
2018-12-30T20:55:44.590Z,98786.38
2018-12-30T20:58:11.576Z,98784.66
2018-12-30T21:00:38.586Z,98785.15
2018-12-30T21:03:05.544Z,98798.19
2018-12-30T21:05:32.483Z,98797.34
2018-12-30T21:07:59.445Z,98785.73
2018-12-30T21:10:26.459Z,98784.05
2018-12-30T21:12:53.400Z,98775.34
2018-12-30T21:15:20.352Z,98776.75
2018-12-30T21:17:47.330Z,98768.52
2018-12-30T21:20:14.356Z,98764.16
2018-12-30T21:22:41.359Z,98766.34
2018-12-30T21:25:08.441Z,98768.50
2018-12-30T21:27:35.566Z,98769.94
2018-12-30T21:30:02.546Z,98782.08
2018-12-30T21:32:29.548Z,98778.64
2018-12-30T21:34:56.523Z,98776.05
2018-12-30T21:37:23.512Z,98779.54
2018-12-30T21:39:50.473Z,98773.09
2018-12-30T21:42:17.452Z,98774.81
2018-12-30T21:44:44.529Z,98777.84
2018-12-30T21:47:11.480Z,98767.51
2018-12-30T21:49:38.470Z,98766.68
2018-12-30T21:52:05.494Z,98770.55
2018-12-30T21:54:32.930Z,98767.97
2018-12-30T21:57:00.406Z,98773.66
2018-12-30T21:59:27.908Z,98769.81
2018-12-30T22:01:55.933Z,98770.72
2018-12-30T22:04:23.414Z,98773.31
2018-12-30T22:06:50.923Z,98770.67
2018-12-30T22:09:18.376Z,98769.83
2018-12-30T22:11:45.856Z,98768.08
2018-12-30T22:14:13.301Z,98767.69
2018-12-30T22:16:40.796Z,98772.49
2018-12-30T22:19:08.239Z,98764.27
2018-12-30T22:21:35.686Z,98763.80
2018-12-30T22:24:03.100Z,98763.81
2018-12-30T22:26:30.535Z,98765.16
2018-12-30T22:28:57.952Z,98767.33
2018-12-30T22:31:25.362Z,98770.34
2018-12-30T22:33:52.763Z,98781.13
2018-12-30T22:36:20.164Z,98776.89
2018-12-30T22:38:47.575Z,98776.17
2018-12-30T22:41:14.967Z,98774.04
2018-12-30T22:43:42.403Z,98774.87
2018-12-30T22:46:09.799Z,98785.28
2018-12-30T22:48:37.200Z,98783.08
2018-12-30T22:51:04.615Z,98784.86
2018-12-30T22:53:32.025Z,98784.01
2018-12-30T22:55:59.458Z,98778.36
2018-12-30T22:58:26.888Z,98775.83
2018-12-30T23:01:02.826Z,98782.84
2018-12-30T23:03:29.818Z,98784.58
2018-12-30T23:05:57.305Z,98795.01
2018-12-30T23:08:24.251Z,98786.80
2018-12-30T23:10:53.136Z,98782.94
2018-12-30T23:15:53.540Z,98795.12
2018-12-30T23:18:20.504Z,98788.60
2018-12-30T23:20:47.484Z,98785.10
2018-12-30T23:23:14.430Z,98790.64
2018-12-30T23:25:41.391Z,98783.23
2018-12-30T23:28:08.362Z,98786.30
2018-12-30T23:30:35.315Z,98792.36
2018-12-30T23:33:02.304Z,98793.28
2018-12-30T23:35:29.424Z,98790.69
2018-12-30T23:37:56.446Z,98780.33
2018-12-30T23:40:23.445Z,98784.67
2018-12-30T23:42:50.491Z,98779.89
2018-12-30T23:45:17.470Z,98785.62
2018-12-30T23:47:44.468Z,98775.71
2018-12-30T23:50:11.440Z,98768.39
2018-12-30T23:52:38.438Z,98765.78
2018-12-30T23:55:05.454Z,98761.03
2018-12-30T23:57:33.235Z,98762.34
